Terminal Aerodrome Forecast
Issued by NWS

Home | Current Version | Previous Version | Text Only | Print | Product List | Glossary On
Versions: 1 2 3 4 5 6 7 8 9 10 11 12 13 14 15 16 17 18 19 20 21 22 23 24 25
000
FTUS45 KLKN 171700
TAFEKO
TAF
KEKO 171720Z 1718/1818 VRB04KT P6SM SCT150 SCT200
     FM172000 22010G20KT P6SM VCTS SCT100CB
     FM180200 VRB06KT P6SM SCT100
     FM180600 21007KT P6SM VCSH BKN090=

USA.gov is the U.S. government's official web portal to all federal, state and local government web resources and services.